Time;durP1;ratioP1;P1;durP2;ratioP2;P2;SDS_P1;SDS_P2;PMS_P1;PMS_P2;Temp;Humidity;BMP_temperature;BMP_pressure;BME280_temperature;BME280_humidity;BME280_pressure;Samples;Min_cycle;Max_cycle;Signal;HPM_P1;HPM_P2
2022/04/09 00:01:21;;;;;;;;;;;;;;;;;;5056696;28;20392;-25
2022/04/09 00:03:50;;;;;;;;;;;;;;;;;;5056622;28;19916;-24
2022/04/09 00:06:16;;;;;;;;;;;;;;;;;;5056857;28;20251;-24
2022/04/09 00:08:42;;;;;;;;;;;;;;;;;;5056575;28;19909;-25
2022/04/09 00:11:11;;;;;;;;;;;;;;;;;;5038993;28;20007;-24
2022/04/09 00:13:38;;;;;;;;;;;;;;;;;;5056493;28;20035;-25
2022/04/09 00:16:04;;;;;;;;;;;;;;;;;;5056416;28;19916;-24
2022/04/09 00:18:35;;;;;;;;;;;;;;;;;;5056389;28;19909;-25
2022/04/09 00:21:01;;;;;;;;;;;;;;;;;;5055636;28;19994;-25
2022/04/09 00:23:28;;;;;;;;;;;;;;;;;;5056207;28;20009;-25
2022/04/09 00:25:54;;;;;;;;;;;;;;;;;;5056302;28;19919;-25
2022/04/09 00:28:20;;;;;;;;;;;;;;;;;;5056255;28;19919;-24
2022/04/09 00:30:46;;;;;;;;;;;;;;;;;;5056412;28;19992;-24
2022/04/09 00:33:16;;;;;;;;;;;;;;;;;;5038306;28;19959;-24
2022/04/09 00:35:42;;;;;;;;;;;;;;;;;;5056349;28;20229;-25
2022/04/09 00:38:08;;;;;;;;;;;;;;;;;;5056274;28;19915;-25
2022/04/09 00:40:37;;;;;;;;;;;;;;;;;;5038428;28;20402;-25
2022/04/09 00:43:03;;;;;;;;;;;;;;;;;;5055838;28;19925;-25
2022/04/09 00:45:30;;;;;;;;;;;;;;;;;;5056168;28;19920;-25
2022/04/09 00:47:59;;;;;;;;;;;;;;;;;;5055813;28;20020;-25
2022/04/09 00:50:25;;;;;;;;;;;;;;;;;;5055652;28;19916;-25
2022/04/09 00:52:51;;;;;;;;;;;;;;;;;;5055695;28;19913;-25
2022/04/09 00:56:12;;;;;;;;;;;;;;;;;;5055644;28;20359;-25
2022/04/09 00:58:08;;;;;;;;;;;;;;;;;;5055442;28;19944;-24
2022/04/09 01:00:35;;;;;;;;;;;;;;;;;;5055819;28;19912;-24
2022/04/09 01:03:01;;;;;;;;;;;;;;;;;;5055392;28;19916;-24
2022/04/09 01:05:28;;;;;;;;;;;;;;;;;;5055512;28;19908;-24
2022/04/09 01:07:54;;;;;;;;;;;;;;;;;;5055475;28;20382;-24
2022/04/09 01:10:22;;;;;;;;;;;;;;;;;;5055376;28;20348;-24
2022/04/09 01:12:48;;;;;;;;;;;;;;;;;;5037645;28;20000;-25
2022/04/09 01:15:15;;;;;;;;;;;;;;;;;;5055275;28;19943;-25
2022/04/09 01:17:44;;;;;;;;;;;;;;;;;;5055529;28;19913;-25
2022/04/09 01:20:10;;;;;;;;;;;;;;;;;;5055167;28;20031;-24
2022/04/09 01:22:37;;;;;;;;;;;;;;;;;;5037518;28;19913;-25
2022/04/09 01:25:03;;;;;;;;;;;;;;;;;;5055441;28;20291;-24
2022/04/09 01:27:29;;;;;;;;;;;;;;;;;;5055142;28;20007;-25
2022/04/09 01:29:57;;;;;;;;;;;;;;;;;;5055293;28;19966;-25
2022/04/09 01:32:23;;;;;;;;;;;;;;;;;;5054748;28;19928;-24
2022/04/09 01:34:49;;;;;;;;;;;;;;;;;;5054969;28;19923;-25
2022/04/09 01:37:18;;;;;;;;;;;;;;;;;;5055202;28;19924;-24
2022/04/09 01:39:47;;;;;;;;;;;;;;;;;;5055107;28;19913;-24
2022/04/09 01:42:13;;;;;;;;;;;;;;;;;;5054829;28;19920;-24
2022/04/09 01:44:39;;;;;;;;;;;;;;;;;;5054578;28;19920;-24
2022/04/09 01:47:05;;;;;;;;;;;;;;;;;;5055045;28;19909;-24
2022/04/09 01:49:32;;;;;;;;;;;;;;;;;;5054743;28;19921;-25
2022/04/09 01:52:00;;;;;;;;;;;;;;;;;;5054641;28;19913;-25
2022/04/09 01:54:26;;;;;;;;;;;;;;;;;;5036975;28;19921;-24
2022/04/09 01:56:52;;;;;;;;;;;;;;;;;;5054900;28;19939;-25
2022/04/09 01:59:22;;;;;;;;;;;;;;;;;;5037081;28;19909;-24
2022/04/09 02:01:49;;;;;;;;;;;;;;;;;;5054497;28;20231;-25
2022/04/09 02:04:15;;;;;;;;;;;;;;;;;;5054558;28;19980;-24
2022/04/09 02:06:44;;;;;;;;;;;;;;;;;;5054879;28;19913;-25
2022/04/09 02:09:13;;;;;;;;;;;;;;;;;;5054533;28;19909;-25
2022/04/09 02:11:42;;;;;;;;;;;;;;;;;;5054560;28;19912;-24
2022/04/09 02:14:08;;;;;;;;;;;;;;;;;;5054345;28;19946;-24
2022/04/09 02:16:34;;;;;;;;;;;;;;;;;;5054519;28;19920;-25
2022/04/09 02:19:00;;;;;;;;;;;;;;;;;;5036786;28;19916;-25
2022/04/09 02:21:26;;;;;;;;;;;;;;;;;;5054250;28;20055;-25
2022/04/09 02:23:53;;;;;;;;;;;;;;;;;;5054461;28;19916;-25
2022/04/09 02:26:19;;;;;;;;;;;;;;;;;;5054212;28;19979;-25
2022/04/09 02:28:49;;;;;;;;;;;;;;;;;;5036647;28;19999;-25
2022/04/09 02:31:20;;;;;;;;;;;;;;;;;;5054114;28;20374;-24
2022/04/09 02:33:48;;;;;;;;;;;;;;;;;;5054270;28;19921;-25
2022/04/09 02:36:15;;;;;;;;;;;;;;;;;;5054232;28;20311;-25
2022/04/09 02:38:42;;;;;;;;;;;;;;;;;;5054054;28;19912;-25
2022/04/09 02:41:11;;;;;;;;;;;;;;;;;;5054387;28;19916;-25
2022/04/09 02:43:41;;;;;;;;;;;;;;;;;;5055799;28;19931;-25
2022/04/09 02:46:10;;;;;;;;;;;;;;;;;;5058267;28;20290;-24
2022/04/09 02:48:36;;;;;;;;;;;;;;;;;;5057986;28;19955;-25
2022/04/09 02:51:07;;;;;;;;;;;;;;;;;;5058003;28;19919;-24
2022/04/09 02:53:33;;;;;;;;;;;;;;;;;;5040092;28;19948;-29
2022/04/09 02:55:59;;;;;;;;;;;;;;;;;;5057866;28;19916;-24
2022/04/09 02:58:25;;;;;;;;;;;;;;;;;;5058189;28;19920;-26
2022/04/09 03:00:51;;;;;;;;;;;;;;;;;;5057955;28;20038;-27
2022/04/09 03:03:17;;;;;;;;;;;;;;;;;;5057763;28;19913;-28
2022/04/09 03:05:43;;;;;;;;;;;;;;;;;;5040188;28;19913;-29
2022/04/09 03:08:09;;;;;;;;;;;;;;;;;;5057718;28;19913;-24
2022/04/09 03:10:36;;;;;;;;;;;;;;;;;;5057984;28;19959;-30
2022/04/09 03:13:05;;;;;;;;;;;;;;;;;;5057609;28;19948;-30
2022/04/09 03:15:31;;;;;;;;;;;;;;;;;;5057559;28;20006;-31
2022/04/09 03:17:58;;;;;;;;;;;;;;;;;;5057804;28;19992;-27
2022/04/09 03:20:24;;;;;;;;;;;;;;;;;;5057481;28;19917;-29
2022/04/09 03:22:50;;;;;;;;;;;;;;;;;;5057657;28;19924;-28
2022/04/09 03:25:18;;;;;;;;;;;;;;;;;;5057351;28;19958;-26
2022/04/09 03:27:44;;;;;;;;;;;;;;;;;;5057652;28;19961;-27
2022/04/09 03:30:11;;;;;;;;;;;;;;;;;;5057486;28;20020;-26
2022/04/09 03:32:38;;;;;;;;;;;;;;;;;;5057270;28;19991;-29
2022/04/09 03:35:04;;;;;;;;;;;;;;;;;;5057980;28;19999;-28
2022/04/09 03:37:30;;;;;;;;;;;;;;;;;;5057283;28;19913;-29
2022/04/09 03:39:56;;;;;;;;;;;;;;;;;;5039654;28;19928;-28
2022/04/09 03:42:23;;;;;;;;;;;;;;;;;;5057097;28;19912;-33
2022/04/09 03:44:49;;;;;;;;;;;;;;;;;;5057038;28;19921;-26
2022/04/09 03:47:15;;;;;;;;;;;;;;;;;;5057290;28;20236;-27
2022/04/09 03:49:43;;;;;;;;;;;;;;;;;;5057192;28;20397;-24
2022/04/09 03:52:09;;;;;;;;;;;;;;;;;;5056886;28;19909;-27
2022/04/09 03:54:37;;;;;;;;;;;;;;;;;;5039057;28;19917;-25
2022/04/09 03:57:05;;;;;;;;;;;;;;;;;;5057082;28;20306;-26
2022/04/09 03:59:31;;;;;;;;;;;;;;;;;;5056690;28;19920;-27
2022/04/09 04:01:57;;;;;;;;;;;;;;;;;;5056720;28;19944;-27
2022/04/09 04:04:25;;;;;;;;;;;;;;;;;;5056956;28;20258;-28
2022/04/09 04:06:51;;;;;;;;;;;;;;;;;;5056919;28;20313;-24
2022/04/09 04:09:17;;;;;;;;;;;;;;;;;;5056430;28;20323;-33
2022/04/09 04:11:44;;;;;;;;;;;;;;;;;;5056277;28;19916;-27
2022/04/09 04:14:10;;;;;;;;;;;;;;;;;;5056260;28;19921;-30
2022/04/09 04:16:37;;;;;;;;;;;;;;;;;;5056887;28;19909;-29
2022/04/09 04:19:04;;;;;;;;;;;;;;;;;;5056214;28;19916;-27
2022/04/09 04:21:30;;;;;;;;;;;;;;;;;;5055182;28;20340;-26
2022/04/09 04:23:57;;;;;;;;;;;;;;;;;;5056157;28;19916;-25
2022/04/09 04:26:23;;;;;;;;;;;;;;;;;;5056161;28;20267;-29
2022/04/09 04:28:52;;;;;;;;;;;;;;;;;;5056421;28;19908;-28
2022/04/09 04:31:19;;;;;;;;;;;;;;;;;;5056041;28;19916;-28
2022/04/09 04:33:45;;;;;;;;;;;;;;;;;;5055862;28;19920;-28
2022/04/09 04:36:12;;;;;;;;;;;;;;;;;;5055979;28;19913;-31
2022/04/09 04:38:40;;;;;;;;;;;;;;;;;;5055989;28;19971;-32
2022/04/09 04:41:06;;;;;;;;;;;;;;;;;;5055857;28;19916;-26
2022/04/09 04:43:34;;;;;;;;;;;;;;;;;;5055710;28;20245;-27
2022/04/09 04:46:02;;;;;;;;;;;;;;;;;;5055808;28;19917;-27
2022/04/09 04:48:28;;;;;;;;;;;;;;;;;;5055661;28;19913;-27
2022/04/09 04:50:55;;;;;;;;;;;;;;;;;;5055676;28;19915;-28
2022/04/09 04:53:21;;;;;;;;;;;;;;;;;;5055588;28;19920;-28
2022/04/09 04:55:48;;;;;;;;;;;;;;;;;;5055895;28;19908;-29
2022/04/09 04:58:15;;;;;;;;;;;;;;;;;;5055456;28;19917;-28
2022/04/09 05:00:41;;;;;;;;;;;;;;;;;;5055536;28;20244;-26
2022/04/09 05:03:08;;;;;;;;;;;;;;;;;;5055400;28;19913;-30
2022/04/09 05:05:34;;;;;;;;;;;;;;;;;;5037162;28;19912;-27
2022/04/09 05:08:00;;;;;;;;;;;;;;;;;;5055679;28;19913;-31
2022/04/09 05:10:27;;;;;;;;;;;;;;;;;;5055322;28;19913;-27
2022/04/09 05:12:54;;;;;;;;;;;;;;;;;;5055165;28;19924;-34
2022/04/09 05:15:20;;;;;;;;;;;;;;;;;;5055220;28;20021;-30
2022/04/09 05:17:49;;;;;;;;;;;;;;;;;;5055195;28;19913;-30
2022/04/09 05:20:18;;;;;;;;;;;;;;;;;;5055185;28;20250;-25
2022/04/09 05:22:46;;;;;;;;;;;;;;;;;;5055017;28;19913;-28
2022/04/09 05:25:13;;;;;;;;;;;;;;;;;;5055320;28;20259;-35
2022/04/09 05:27:39;;;;;;;;;;;;;;;;;;5055337;28;19912;-28
2022/04/09 05:30:05;;;;;;;;;;;;;;;;;;5037410;28;19945;-25
2022/04/09 05:32:36;;;;;;;;;;;;;;;;;;5055133;28;19995;-28
2022/04/09 05:35:04;;;;;;;;;;;;;;;;;;5054950;28;19920;-31
2022/04/09 05:37:31;;;;;;;;;;;;;;;;;;5055238;28;19913;-30
2022/04/09 05:39:57;;;;;;;;;;;;;;;;;;5054998;28;19948;-25
2022/04/09 05:42:25;;;;;;;;;;;;;;;;;;5055351;28;19909;-26
2022/04/09 05:44:52;;;;;;;;;;;;;;;;;;5054801;28;20358;-26
2022/04/09 05:47:18;;;;;;;;;;;;;;;;;;5054895;28;19943;-27
2022/04/09 05:49:44;;;;;;;;;;;;;;;;;;5054675;28;19912;-26
2022/04/09 05:52:11;;;;;;;;;;;;;;;;;;5054643;28;20382;-26
2022/04/09 05:54:38;;;;;;;;;;;;;;;;;;5054894;28;20003;-26
2022/04/09 05:57:07;;;;;;;;;;;;;;;;;;5054815;28;20323;-29
2022/04/09 05:59:35;;;;;;;;;;;;;;;;;;5054946;28;19923;-25
2022/04/09 06:02:01;;;;;;;;;;;;;;;;;;5054490;28;19909;-28
2022/04/09 06:04:28;;;;;;;;;;;;;;;;;;5037015;28;20248;-26
2022/04/09 06:06:55;;;;;;;;;;;;;;;;;;5054843;28;19908;-26
2022/04/09 06:09:21;;;;;;;;;;;;;;;;;;5054683;28;19912;-28
2022/04/09 06:11:47;;;;;;;;;;;;;;;;;;5054729;28;20004;-29
2022/04/09 06:14:15;;;;;;;;;;;;;;;;;;5054671;28;20248;-30
2022/04/09 06:16:43;;;;;;;;;;;;;;;;;;5054787;28;19916;-24
2022/04/09 06:19:09;;;;;;;;;;;;;;;;;;5057837;28;19943;-30
2022/04/09 06:21:36;;;;;;;;;;;;;;;;;;5058653;28;19908;-24
2022/04/09 06:24:03;;;;;;;;;;;;;;;;;;5058485;28;19921;-31
2022/04/09 06:26:31;;;;;;;;;;;;;;;;;;5058517;28;20236;-27
2022/04/09 06:28:58;;;;;;;;;;;;;;;;;;5058725;28;19996;-26
2022/04/09 06:31:27;;;;;;;;;;;;;;;;;;5040772;28;19921;-31
2022/04/09 06:33:56;;;;;;;;;;;;;;;;;;5058294;28;20094;-27
2022/04/09 06:36:22;;;;;;;;;;;;;;;;;;5058810;28;20220;-30
2022/04/09 06:38:48;;;;;;;;;;;;;;;;;;5040767;28;20412;-31
2022/04/09 06:41:23;;;;;;;;;;;;;;;;;;5058536;28;19939;-27
2022/04/09 06:43:49;;;;;;;;;;;;;;;;;;5057054;28;19916;-28
2022/04/09 06:46:15;;;;;;;;;;;;;;;;;;5040544;28;19913;-26
2022/04/09 06:48:44;;;;;;;;;;;;;;;;;;5058144;28;20355;-27
2022/04/09 06:51:16;;;;;;;;;;;;;;;;;;5058517;28;19940;-28
2022/04/09 06:53:42;;;;;;;;;;;;;;;;;;5058065;28;19924;-32
2022/04/09 06:58:51;;;;;;;;;;;;;;;;;;5212469;22;19924;-25
2022/04/09 07:01:26;;;;;;;;;;;;;;;;;;5058132;28;19916;-24
2022/04/09 07:03:55;;;;;;;;;;;;;;;;;;5057810;28;19919;-24
2022/04/09 07:06:26;;;;;;;;;;;;;;;;;;5039915;28;19913;-24
2022/04/09 07:08:55;;;;;;;;;;;;;;;;;;5057554;28;20270;-24
2022/04/09 07:11:21;;;;;;;;;;;;;;;;;;5057794;28;19909;-24
2022/04/09 07:16:39;;;;;;;;;;;;;;;;;;5057813;28;19974;-24
2022/04/09 07:19:09;;;;;;;;;;;;;;;;;;5057319;28;19912;-24
2022/04/09 07:21:35;;;;;;;;;;;;;;;;;;5039754;28;20410;-24
2022/04/09 07:24:01;;;;;;;;;;;;;;;;;;5057512;28;19913;-24
2022/04/09 07:26:28;;;;;;;;;;;;;;;;;;5057326;28;19940;-24
2022/04/09 07:28:54;;;;;;;;;;;;;;;;;;5056758;28;20354;-24
2022/04/09 07:31:20;;;;;;;;;;;;;;;;;;5057267;28;19913;-24
2022/04/09 07:33:46;;;;;;;;;;;;;;;;;;5057132;28;19916;-24
2022/04/09 07:36:12;;;;;;;;;;;;;;;;;;5057431;28;19912;-24
2022/04/09 07:38:38;;;;;;;;;;;;;;;;;;5057032;28;19913;-24
2022/04/09 07:41:04;;;;;;;;;;;;;;;;;;5057252;28;19978;-24
2022/04/09 07:43:31;;;;;;;;;;;;;;;;;;5057016;28;19908;-24
2022/04/09 07:45:57;;;;;;;;;;;;;;;;;;5057166;28;19944;-24
2022/04/09 07:48:23;;;;;;;;;;;;;;;;;;5057125;28;19967;-24
2022/04/09 07:50:50;;;;;;;;;;;;;;;;;;5056938;28;19912;-24
2022/04/09 07:53:17;;;;;;;;;;;;;;;;;;5057080;28;20409;-24
2022/04/09 07:55:43;;;;;;;;;;;;;;;;;;5056782;28;20004;-24
2022/04/09 07:58:09;;;;;;;;;;;;;;;;;;5056476;28;20115;-24
2022/04/09 08:00:35;;;;;;;;;;;;;;;;;;5057009;28;19940;-24
2022/04/09 08:03:01;;;;;;;;;;;;;;;;;;5056672;28;19923;-24
2022/04/09 08:05:27;;;;;;;;;;;;;;;;;;5056949;28;19913;-24
2022/04/09 08:07:53;;;;;;;;;;;;;;;;;;5056526;28;20306;-24
2022/04/09 08:10:19;;;;;;;;;;;;;;;;;;5056783;28;20262;-24
2022/04/09 08:12:48;;;;;;;;;;;;;;;;;;5056439;28;20264;-24
2022/04/09 08:15:16;;;;;;;;;;;;;;;;;;5056606;28;19923;-24
2022/04/09 08:17:42;;;;;;;;;;;;;;;;;;5056273;28;19912;-24
2022/04/09 08:20:08;;;;;;;;;;;;;;;;;;5056378;28;19920;-24
2022/04/09 08:22:34;;;;;;;;;;;;;;;;;;5056294;28;19939;-24
2022/04/09 08:25:02;;;;;;;;;;;;;;;;;;5056559;28;19967;-24
2022/04/09 08:27:28;;;;;;;;;;;;;;;;;;5038592;28;19991;-24
2022/04/09 08:29:54;;;;;;;;;;;;;;;;;;5056511;28;19932;-24
2022/04/09 08:32:22;;;;;;;;;;;;;;;;;;5056083;28;19912;-24
2022/04/09 08:34:49;;;;;;;;;;;;;;;;;;5056309;28;20029;-24
2022/04/09 08:37:15;;;;;;;;;;;;;;;;;;5055996;28;19912;-24
2022/04/09 08:39:41;;;;;;;;;;;;;;;;;;5056528;28;19909;-24
2022/04/09 08:42:07;;;;;;;;;;;;;;;;;;5055132;28;19916;-24
2022/04/09 08:44:34;;;;;;;;;;;;;;;;;;5055941;28;19916;-24
2022/04/09 08:47:00;;;;;;;;;;;;;;;;;;5055765;28;19913;-24
2022/04/09 08:49:26;;;;;;;;;;;;;;;;;;5056050;28;20357;-24
2022/04/09 08:51:52;;;;;;;;;;;;;;;;;;5055748;28;20240;-24
2022/04/09 08:54:18;;;;;;;;;;;;;;;;;;5055673;28;19913;-24
2022/04/09 08:56:45;;;;;;;;;;;;;;;;;;5055577;28;19923;-24
2022/04/09 08:59:11;;;;;;;;;;;;;;;;;;5055419;28;19959;-24
2022/04/09 09:01:38;;;;;;;;;;;;;;;;;;5055617;28;19960;-24
2022/04/09 09:04:04;;;;;;;;;;;;;;;;;;5055582;28;19970;-24
2022/04/09 09:06:30;;;;;;;;;;;;;;;;;;5055506;28;19923;-24
2022/04/09 09:08:56;;;;;;;;;;;;;;;;;;5055293;28;19909;-24
2022/04/09 09:11:22;;;;;;;;;;;;;;;;;;5055417;28;20267;-24
2022/04/09 09:13:48;;;;;;;;;;;;;;;;;;5055373;28;19955;-24
2022/04/09 09:16:14;;;;;;;;;;;;;;;;;;5055400;28;19962;-24
2022/04/09 09:18:40;;;;;;;;;;;;;;;;;;5055283;28;19913;-24
2022/04/09 09:21:06;;;;;;;;;;;;;;;;;;5055654;28;20383;-24
2022/04/09 09:23:33;;;;;;;;;;;;;;;;;;5055293;28;19912;-24
2022/04/09 09:25:59;;;;;;;;;;;;;;;;;;5055487;28;19913;-24
2022/04/09 09:28:25;;;;;;;;;;;;;;;;;;5055089;28;19913;-24
2022/04/09 09:30:51;;;;;;;;;;;;;;;;;;5055152;28;19912;-24
2022/04/09 09:33:18;;;;;;;;;;;;;;;;;;5055088;28;20366;-24
2022/04/09 09:35:44;;;;;;;;;;;;;;;;;;5055294;28;19912;-25
2022/04/09 09:38:10;;;;;;;;;;;;;;;;;;5054849;28;19948;-24
2022/04/09 09:40:36;;;;;;;;;;;;;;;;;;5054954;28;19909;-24
2022/04/09 09:43:02;;;;;;;;;;;;;;;;;;5054928;28;19913;-24
2022/04/09 09:45:28;;;;;;;;;;;;;;;;;;5054896;28;19967;-25
2022/04/09 09:47:54;;;;;;;;;;;;;;;;;;5054723;28;19909;-25
2022/04/09 09:50:21;;;;;;;;;;;;;;;;;;5055326;28;19924;-24
2022/04/09 09:52:47;;;;;;;;;;;;;;;;;;5054915;28;20394;-24
2022/04/09 09:55:19;;;;;;;;;;;;;;;;;;5054771;28;19912;-24
2022/04/09 09:57:48;;;;;;;;;;;;;;;;;;5054936;28;19917;-24
2022/04/09 10:00:14;;;;;;;;;;;;;;;;;;5054754;28;20314;-24
2022/04/09 10:02:40;;;;;;;;;;;;;;;;;;5055043;28;19913;-24
2022/04/09 10:05:07;;;;;;;;;;;;;;;;;;5054912;28;19920;-24
2022/04/09 10:07:33;;;;;;;;;;;;;;;;;;5037248;28;19924;-24
2022/04/09 10:09:59;;;;;;;;;;;;;;;;;;5054618;28;20332;-24
2022/04/09 10:12:25;;;;;;;;;;;;;;;;;;5054586;28;19913;-24
2022/04/09 10:14:51;;;;;;;;;;;;;;;;;;5054936;28;19917;-24
2022/04/09 10:17:17;;;;;;;;;;;;;;;;;;5054440;28;19913;-24
2022/04/09 10:19:43;;;;;;;;;;;;;;;;;;5054535;28;19921;-24
2022/04/09 10:22:09;;;;;;;;;;;;;;;;;;5054462;28;19939;-24
2022/04/09 10:24:35;;;;;;;;;;;;;;;;;;5054450;28;20386;-24
2022/04/09 10:27:04;;;;;;;;;;;;;;;;;;5054429;28;19936;-24
2022/04/09 10:29:30;;;;;;;;;;;;;;;;;;5054729;28;19920;-25
2022/04/09 10:31:56;;;;;;;;;;;;;;;;;;5054527;28;19913;-24
2022/04/09 10:34:22;;;;;;;;;;;;;;;;;;5054592;28;19990;-24
2022/04/09 10:36:49;;;;;;;;;;;;;;;;;;5054352;28;19992;-24
2022/04/09 10:39:15;;;;;;;;;;;;;;;;;;5054683;28;19959;-24
2022/04/09 10:41:42;;;;;;;;;;;;;;;;;;5054323;28;19955;-24
2022/04/09 10:44:08;;;;;;;;;;;;;;;;;;5054673;28;19974;-24
2022/04/09 10:46:35;;;;;;;;;;;;;;;;;;5054306;28;19963;-24
2022/04/09 10:49:02;;;;;;;;;;;;;;;;;;5054288;28;19913;-24
2022/04/09 10:51:28;;;;;;;;;;;;;;;;;;5054308;28;20000;-24
2022/04/09 10:53:54;;;;;;;;;;;;;;;;;;5054125;28;20309;-24
2022/04/09 10:56:21;;;;;;;;;;;;;;;;;;5054470;28;20294;-24
2022/04/09 10:58:47;;;;;;;;;;;;;;;;;;5054067;28;20006;-24
2022/04/09 11:01:13;;;;;;;;;;;;;;;;;;5054237;28;19959;-24
2022/04/09 11:03:39;;;;;;;;;;;;;;;;;;5054504;28;19973;-24
2022/04/09 11:06:05;;;;;;;;;;;;;;;;;;5058190;28;20255;-24
2022/04/09 11:08:31;;;;;;;;;;;;;;;;;;5057834;28;19975;-24
2022/04/09 11:10:57;;;;;;;;;;;;;;;;;;5058134;28;20042;-24
2022/04/09 11:13:23;;;;;;;;;;;;;;;;;;5057832;28;19952;-24
2022/04/09 11:15:49;;;;;;;;;;;;;;;;;;5057701;28;19928;-24
2022/04/09 11:18:15;;;;;;;;;;;;;;;;;;5040383;28;19909;-24
2022/04/09 11:20:41;;;;;;;;;;;;;;;;;;5057661;28;19998;-24
2022/04/09 11:23:07;;;;;;;;;;;;;;;;;;5057617;28;19916;-24
2022/04/09 11:25:33;;;;;;;;;;;;;;;;;;5057638;28;19939;-24
2022/04/09 11:27:59;;;;;;;;;;;;;;;;;;5057643;28;19913;-24
2022/04/09 11:30:25;;;;;;;;;;;;;;;;;;5057742;28;19920;-24
2022/04/09 11:32:51;;;;;;;;;;;;;;;;;;5057472;28;19969;-24
2022/04/09 11:35:24;;;;;;;;;;;;;;;;;;5057297;28;20262;-24
2022/04/09 11:37:50;;;;;;;;;;;;;;;;;;5057583;28;20047;-24
2022/04/09 11:40:16;;;;;;;;;;;;;;;;;;5057193;28;19912;-24
2022/04/09 11:42:43;;;;;;;;;;;;;;;;;;5057282;28;20312;-24
2022/04/09 11:45:09;;;;;;;;;;;;;;;;;;5057152;28;19912;-24
2022/04/09 11:47:35;;;;;;;;;;;;;;;;;;5057009;28;19924;-25
2022/04/09 11:50:01;;;;;;;;;;;;;;;;;;5057111;28;19992;-24
2022/04/09 11:52:27;;;;;;;;;;;;;;;;;;5057121;28;19975;-24
2022/04/09 11:54:54;;;;;;;;;;;;;;;;;;5056911;28;19927;-24
2022/04/09 11:57:20;;;;;;;;;;;;;;;;;;5056973;28;20264;-24
2022/04/09 11:59:47;;;;;;;;;;;;;;;;;;5056794;28;19946;-24
2022/04/09 12:02:17;;;;;;;;;;;;;;;;;;5057072;28;19952;-24
2022/04/09 12:04:44;;;;;;;;;;;;;;;;;;5039328;28;20346;-24
2022/04/09 12:07:11;;;;;;;;;;;;;;;;;;5057012;28;20266;-24
2022/04/09 12:09:39;;;;;;;;;;;;;;;;;;5056717;28;19917;-24
2022/04/09 12:12:06;;;;;;;;;;;;;;;;;;5057162;28;19913;-24
2022/04/09 12:14:33;;;;;;;;;;;;;;;;;;5056576;28;19920;-31
2022/04/09 12:17:01;;;;;;;;;;;;;;;;;;5056551;28;20267;-24
2022/04/09 12:19:28;;;;;;;;;;;;;;;;;;5056639;28;19924;-24
2022/04/09 12:21:55;;;;;;;;;;;;;;;;;;5056798;28;19913;-24
2022/04/09 12:24:22;;;;;;;;;;;;;;;;;;5056407;28;19924;-25
2022/04/09 12:26:48;;;;;;;;;;;;;;;;;;5056633;28;20239;-24
2022/04/09 12:29:17;;;;;;;;;;;;;;;;;;5056652;28;19909;-24
2022/04/09 12:31:43;;;;;;;;;;;;;;;;;;5056290;28;20304;-24
2022/04/09 12:34:12;;;;;;;;;;;;;;;;;;5056517;28;19920;-24
2022/04/09 12:36:42;;;;;;;;;;;;;;;;;;5056281;28;19912;-24
2022/04/09 12:39:09;;;;;;;;;;;;;;;;;;5056437;28;19939;-24
2022/04/09 12:41:36;;;;;;;;;;;;;;;;;;5056150;28;19987;-24
2022/04/09 12:44:03;;;;;;;;;;;;;;;;;;5056161;28;19940;-24
2022/04/09 12:46:30;;;;;;;;;;;;;;;;;;5056093;28;19944;-24
2022/04/09 12:48:57;;;;;;;;;;;;;;;;;;5055959;28;19913;-24
2022/04/09 12:51:25;;;;;;;;;;;;;;;;;;5055963;28;19920;-24
2022/04/09 12:53:51;;;;;;;;;;;;;;;;;;5055984;28;19917;-24
2022/04/09 12:56:20;;;;;;;;;;;;;;;;;;5055875;28;20319;-24
2022/04/09 12:58:46;;;;;;;;;;;;;;;;;;5055452;28;19925;-24
2022/04/09 13:01:14;;;;;;;;;;;;;;;;;;5055757;28;19913;-24
2022/04/09 13:03:42;;;;;;;;;;;;;;;;;;5055690;28;20323;-24
2022/04/09 13:06:14;;;;;;;;;;;;;;;;;;5055693;28;19979;-24
2022/04/09 13:08:43;;;;;;;;;;;;;;;;;;5055797;28;19913;-24
2022/04/09 13:11:14;;;;;;;;;;;;;;;;;;5055495;28;19952;-24
2022/04/09 13:13:45;;;;;;;;;;;;;;;;;;5037837;28;20315;-24
2022/04/09 13:16:11;;;;;;;;;;;;;;;;;;5055740;28;20318;-24
2022/04/09 13:18:41;;;;;;;;;;;;;;;;;;5055335;28;19912;-24
2022/04/09 13:21:08;;;;;;;;;;;;;;;;;;5055591;28;19913;-24
2022/04/09 13:23:35;;;;;;;;;;;;;;;;;;5055324;28;20401;-24
2022/04/09 13:26:03;;;;;;;;;;;;;;;;;;5055207;28;20000;-24
2022/04/09 13:28:31;;;;;;;;;;;;;;;;;;5055046;28;19916;-24
2022/04/09 13:31:06;;;;;;;;;;;;;;;;;;5055141;28;20201;-24
2022/04/09 13:33:33;;;;;;;;;;;;;;;;;;5055050;28;20297;-24
2022/04/09 13:36:01;;;;;;;;;;;;;;;;;;5055078;28;19955;-24
2022/04/09 13:38:28;;;;;;;;;;;;;;;;;;5055067;28;19909;-24
2022/04/09 13:40:54;;;;;;;;;;;;;;;;;;5037404;28;19924;-24
2022/04/09 13:43:21;;;;;;;;;;;;;;;;;;5054931;28;19909;-25
2022/04/09 13:45:48;;;;;;;;;;;;;;;;;;5055173;28;20262;-24
2022/04/09 13:48:16;;;;;;;;;;;;;;;;;;5054804;28;19963;-24
2022/04/09 13:50:43;;;;;;;;;;;;;;;;;;5037264;28;20358;-24
2022/04/09 13:53:12;;;;;;;;;;;;;;;;;;5054775;28;19924;-24
2022/04/09 13:55:41;;;;;;;;;;;;;;;;;;5054922;28;19924;-24
2022/04/09 13:58:08;;;;;;;;;;;;;;;;;;5054480;28;19923;-24
2022/04/09 14:00:35;;;;;;;;;;;;;;;;;;5054993;28;19996;-24
2022/04/09 14:03:02;;;;;;;;;;;;;;;;;;5054963;28;20396;-24
2022/04/09 14:05:29;;;;;;;;;;;;;;;;;;5054688;28;20338;-24
2022/04/09 14:07:58;;;;;;;;;;;;;;;;;;5054634;28;19919;-24
2022/04/09 14:10:30;;;;;;;;;;;;;;;;;;5054948;28;19913;-24
2022/04/09 14:12:58;;;;;;;;;;;;;;;;;;5054646;28;19920;-24
2022/04/09 14:15:25;;;;;;;;;;;;;;;;;;5054533;28;19928;-24
2022/04/09 14:17:52;;;;;;;;;;;;;;;;;;5054453;28;19952;-24
2022/04/09 14:20:20;;;;;;;;;;;;;;;;;;5054880;28;19921;-24
2022/04/09 14:22:47;;;;;;;;;;;;;;;;;;5054489;28;19923;-24
2022/04/09 14:25:16;;;;;;;;;;;;;;;;;;5054472;28;20015;-24
2022/04/09 14:27:43;;;;;;;;;;;;;;;;;;5036798;28;19924;-23
2022/04/09 14:30:09;;;;;;;;;;;;;;;;;;5054529;28;19919;-24
2022/04/09 14:32:35;;;;;;;;;;;;;;;;;;5054406;28;19920;-24
2022/04/09 14:35:01;;;;;;;;;;;;;;;;;;5054587;28;19931;-24
2022/04/09 14:37:27;;;;;;;;;;;;;;;;;;5054263;28;19917;-24
2022/04/09 14:39:53;;;;;;;;;;;;;;;;;;5039285;28;20343;-24
2022/04/09 14:42:19;;;;;;;;;;;;;;;;;;5040692;28;20374;-24
2022/04/09 14:44:45;;;;;;;;;;;;;;;;;;5058334;28;19982;-24
2022/04/09 14:47:12;;;;;;;;;;;;;;;;;;5058379;28;19999;-24
2022/04/09 14:49:38;;;;;;;;;;;;;;;;;;5058208;28;20347;-24
2022/04/09 14:52:04;;;;;;;;;;;;;;;;;;5058476;28;20255;-24
2022/04/09 14:54:31;;;;;;;;;;;;;;;;;;5058072;28;19949;-24
2022/04/09 14:56:57;;;;;;;;;;;;;;;;;;5058054;28;19927;-24
2022/04/09 14:59:23;;;;;;;;;;;;;;;;;;5057948;28;20317;-24
2022/04/09 15:01:51;;;;;;;;;;;;;;;;;;5057963;28;19924;-24
2022/04/09 15:04:20;;;;;;;;;;;;;;;;;;5058154;28;20071;-24
2022/04/09 15:06:47;;;;;;;;;;;;;;;;;;5057800;28;20126;-24
2022/04/09 15:12:12;;;;;;;;;;;;;;;;;;5057909;28;19966;-24
2022/04/09 15:17:33;;;;;;;;;;;;;;;;;;5057749;28;20298;-24
2022/04/09 15:20:03;;;;;;;;;;;;;;;;;;5057920;28;19912;-24
2022/04/09 15:22:32;;;;;;;;;;;;;;;;;;5057507;28;20331;-24
2022/04/09 15:25:09;;;;;;;;;;;;;;;;;;5057573;28;20225;-24
2022/04/09 15:27:36;;;;;;;;;;;;;;;;;;5057661;28;19917;-24
2022/04/09 15:30:05;;;;;;;;;;;;;;;;;;5057732;28;20305;-24
2022/04/09 15:32:34;;;;;;;;;;;;;;;;;;5057194;28;19920;-24
2022/04/09 15:35:03;;;;;;;;;;;;;;;;;;5057411;28;19920;-24
2022/04/09 15:37:30;;;;;;;;;;;;;;;;;;5057223;28;19913;-24
2022/04/09 15:39:58;;;;;;;;;;;;;;;;;;5057570;28;20229;-24
2022/04/09 15:42:31;;;;;;;;;;;;;;;;;;5039570;28;19913;-24
2022/04/09 15:45:03;;;;;;;;;;;;;;;;;;5057758;28;19923;-24
2022/04/09 15:47:31;;;;;;;;;;;;;;;;;;5057045;28;19913;-24
2022/04/09 15:50:03;;;;;;;;;;;;;;;;;;5056692;28;19985;-24
2022/04/09 15:52:37;;;;;;;;;;;;;;;;;;5057034;28;19909;-24
2022/04/09 15:55:04;;;;;;;;;;;;;;;;;;5057096;28;20011;-24
2022/04/09 15:57:35;;;;;;;;;;;;;;;;;;5056868;28;19909;-24
2022/04/09 16:00:06;;;;;;;;;;;;;;;;;;5037227;28;20348;-24
2022/04/09 16:02:42;;;;;;;;;;;;;;;;;;5036829;28;19917;-24
2022/04/09 16:05:17;;;;;;;;;;;;;;;;;;5036814;28;19920;-24
2022/04/09 16:07:44;;;;;;;;;;;;;;;;;;5036974;28;19914;-24
2022/04/09 16:10:20;;;;;;;;;;;;;;;;;;5036834;28;20355;-24
2022/04/09 16:12:47;;;;;;;;;;;;;;;;;;5036679;28;20003;-24
2022/04/09 16:15:19;;;;;;;;;;;;;;;;;;5036702;28;20317;-24
2022/04/09 16:17:49;;;;;;;;;;;;;;;;;;5036844;28;20063;-24
2022/04/09 16:20:25;;;;;;;;;;;;;;;;;;5036648;28;19966;-24
2022/04/09 16:23:10;;;;;;;;;;;;;;;;;;5036497;28;19913;-24
2022/04/09 16:25:42;;;;;;;;;;;;;;;;;;5036517;28;19909;-24
2022/04/09 16:28:09;;;;;;;;;;;;;;;;;;5036398;28;20311;-24
2022/04/09 16:30:37;;;;;;;;;;;;;;;;;;5037005;28;19992;-24
2022/04/09 16:33:06;;;;;;;;;;;;;;;;;;5036379;28;19920;-24
2022/04/09 16:35:36;;;;;;;;;;;;;;;;;;5036266;28;19913;-24
2022/04/09 16:38:05;;;;;;;;;;;;;;;;;;5036170;28;20016;-24
2022/04/09 16:40:36;;;;;;;;;;;;;;;;;;5036190;28;19913;-24
2022/04/09 16:43:06;;;;;;;;;;;;;;;;;;5036117;28;19920;-24
2022/04/09 16:45:37;;;;;;;;;;;;;;;;;;5035310;28;19924;-24
2022/04/09 16:48:06;;;;;;;;;;;;;;;;;;5035787;28;19960;-24
2022/04/09 16:50:33;;;;;;;;;;;;;;;;;;5035993;28;19933;-24
2022/04/09 16:53:00;;;;;;;;;;;;;;;;;;5018394;28;20362;-24
2022/04/09 16:55:27;;;;;;;;;;;;;;;;;;5036089;28;19913;-24
2022/04/09 16:57:55;;;;;;;;;;;;;;;;;;5038081;28;19913;-24